Time,TemperatureF,DewpointF,PressureIn,WindDirection,WindDirectionDegrees,WindSpeedMPH,WindSpeedGustMPH,Humidity,HourlyPrecipIn,Conditions,Clouds,dailyrainin,SoftwareType,DateUTC
2013-04-29 00:01:00,55.2,52.3,29.90,SSW,213,0.0,0.0,90,0.00,,,0.00,Wunderground v.1.15,2013-04-29 04:01:00,
2013-04-29 00:03:00,55.2,52.3,29.90,SSW,213,0.0,0.0,90,0.00,,,0.00,Wunderground v.1.15,2013-04-29 04:03:00,
2013-04-29 00:05:00,55.1,52.2,29.90,SSW,213,0.0,0.0,90,0.00,,,0.00,Wunderground v.1.15,2013-04-29 04:05:00,
2013-04-29 00:07:00,55.0,52.1,29.90,SSW,213,0.0,0.0,90,0.00,,,0.00,Wunderground v.1.15,2013-04-29 04:07:00,
2013-04-29 00:10:00,54.9,52.0,29.90,SSW,213,0.0,0.0,90,0.00,,,0.00,Wunderground v.1.15,2013-04-29 04:10:00,
2013-04-29 00:15:00,54.8,51.9,29.90,SSW,213,0.0,0.0,90,0.00,,,0.00,Wunderground v.1.15,2013-04-29 04:15:00,
2013-04-29 00:21:00,54.5,51.9,29.90,SSW,213,0.0,0.0,91,0.00,,,0.00,Wunderground v.1.15,2013-04-29 04:21:00,
2013-04-29 00:26:00,54.3,51.7,29.90,SSW,213,0.0,0.0,91,0.00,,,0.00,Wunderground v.1.15,2013-04-29 04:26:00,
2013-04-29 00:31:00,54.1,51.5,29.90,SSW,213,0.0,1.0,91,0.00,,,0.00,Wunderground v.1.15,2013-04-29 04:31:00,
2013-04-29 00:36:00,53.9,51.3,29.90,SSW,213,0.0,1.0,91,0.00,,,0.00,Wunderground v.1.15,2013-04-29 04:36:00,
2013-04-29 00:42:00,53.9,51.6,29.90,SSW,213,0.0,0.0,92,0.00,,,0.00,Wunderground v.1.15,2013-04-29 04:42:00,
2013-04-29 00:48:00,54.0,52.0,29.90,SSW,213,0.0,0.0,93,0.00,,,0.00,Wunderground v.1.15,2013-04-29 04:48:00,
2013-04-29 00:53:00,54.0,52.0,29.90,SSW,213,1.0,1.0,93,0.00,,,0.00,Wunderground v.1.15,2013-04-29 04:53:00,
2013-04-29 00:58:00,54.2,52.2,29.90,West,273,0.0,1.0,93,0.00,,,0.00,Wunderground v.1.15,2013-04-29 04:58:00,
2013-04-29 01:03:00,54.3,52.3,29.90,WSW,246,0.0,3.0,93,0.00,,,0.00,Wunderground v.1.15,2013-04-29 05:03:00,
2013-04-29 01:09:00,54.4,52.4,29.90,WSW,246,0.0,3.0,93,0.00,,,0.00,Wunderground v.1.15,2013-04-29 05:09:00,
2013-04-29 01:15:00,54.6,52.6,29.90,WSW,246,0.0,2.0,93,0.00,,,0.00,Wunderground v.1.15,2013-04-29 05:15:00,
2013-04-29 01:21:00,54.8,52.8,29.91,WSW,246,0.0,1.0,93,0.00,,,0.00,Wunderground v.1.15,2013-04-29 05:21:00,
2013-04-29 01:26:00,54.9,52.9,29.91,WSW,246,0.0,1.0,93,0.00,,,0.00,Wunderground v.1.15,2013-04-29 05:26:00,
2013-04-29 01:32:00,55.0,53.0,29.91,WSW,246,0.0,1.0,93,0.00,,,0.00,Wunderground v.1.15,2013-04-29 05:32:00,
2013-04-29 01:38:00,55.1,53.1,29.91,WSW,246,0.0,1.0,93,0.00,,,0.00,Wunderground v.1.15,2013-04-29 05:38:00,
2013-04-29 01:43:00,55.2,53.2,29.91,WSW,246,0.0,0.0,93,0.00,,,0.00,Wunderground v.1.15,2013-04-29 05:43:00,
2013-04-29 01:49:00,55.2,53.2,29.91,WSW,246,0.0,0.0,93,0.00,,,0.00,Wunderground v.1.15,2013-04-29 05:49:00,
2013-04-29 01:54:00,55.3,53.0,29.91,WSW,246,0.0,0.0,92,0.00,,,0.00,Wunderground v.1.15,2013-04-29 05:54:00,
2013-04-29 02:00:00,55.4,53.1,29.91,WSW,246,0.0,0.0,92,0.00,,,0.00,Wunderground v.1.15,2013-04-29 06:00:00,
2013-04-29 02:05:00,55.4,53.1,29.91,WSW,246,0.0,1.0,92,0.00,,,0.00,Wunderground v.1.15,2013-04-29 06:05:00,
2013-04-29 02:10:00,55.4,53.1,29.91,WSW,246,1.0,1.0,92,0.00,,,0.00,Wunderground v.1.15,2013-04-29 06:10:00,
2013-04-29 02:15:00,55.5,53.2,29.91,WSW,241,0.0,3.0,92,0.00,,,0.00,Wunderground v.1.15,2013-04-29 06:15:00,
2013-04-29 02:20:00,55.5,53.2,29.91,WSW,241,0.0,0.0,92,0.00,,,0.00,Wunderground v.1.15,2013-04-29 06:20:00,
2013-04-29 02:25:00,55.5,53.2,29.91,WSW,241,0.0,3.0,92,0.00,,,0.00,Wunderground v.1.15,2013-04-29 06:25:00,
2013-04-29 02:30:00,55.5,53.2,29.91,WSW,243,0.0,0.0,92,0.00,,,0.00,Wunderground v.1.15,2013-04-29 06:30:00,
2013-04-29 02:35:00,55.5,53.2,29.91,WSW,243,0.0,0.0,92,0.00,,,0.00,Wunderground v.1.15,2013-04-29 06:35:00,
2013-04-29 02:40:00,55.5,53.2,29.91,West,261,0.0,1.0,92,0.00,,,0.00,Wunderground v.1.15,2013-04-29 06:40:00,
2013-04-29 02:45:00,55.5,53.2,29.91,West,261,0.0,1.0,92,0.00,,,0.00,Wunderground v.1.15,2013-04-29 06:45:00,
2013-04-29 02:50:00,55.5,53.2,29.91,West,261,0.0,0.0,92,0.00,,,0.00,Wunderground v.1.15,2013-04-29 06:50:00,
2013-04-29 02:55:00,55.5,53.2,29.91,West,261,0.0,1.0,92,0.00,,,0.00,Wunderground v.1.15,2013-04-29 06:55:00,
2013-04-29 03:01:00,55.5,53.2,29.91,WSW,246,0.0,0.0,92,0.00,,,0.00,Wunderground v.1.15,2013-04-29 07:01:00,
2013-04-29 03:06:00,55.5,53.5,29.91,WSW,247,0.0,1.0,93,0.00,,,0.00,Wunderground v.1.15,2013-04-29 07:06:00,
2013-04-29 03:11:00,55.5,53.5,29.92,WSW,247,0.0,1.0,93,0.00,,,0.00,Wunderground v.1.15,2013-04-29 07:11:00,
2013-04-29 03:17:00,55.5,53.5,29.91,WSW,247,0.0,1.0,93,0.00,,,0.00,Wunderground v.1.15,2013-04-29 07:17:00,
2013-04-29 03:22:00,55.5,53.5,29.92,WSW,247,0.0,0.0,93,0.00,,,0.00,Wunderground v.1.15,2013-04-29 07:22:00,
2013-04-29 03:27:00,55.5,53.5,29.92,WSW,247,0.0,2.0,93,0.00,,,0.00,Wunderground v.1.15,2013-04-29 07:27:00,
2013-04-29 03:32:00,55.4,53.4,29.91,WSW,247,0.0,2.0,93,0.00,,,0.00,Wunderground v.1.15,2013-04-29 07:32:00,
2013-04-29 03:37:00,55.4,53.4,29.92,WSW,247,0.0,2.0,93,0.00,,,0.00,Wunderground v.1.15,2013-04-29 07:37:00,
2013-04-29 03:42:00,55.4,53.7,29.92,WSW,247,0.0,0.0,94,0.00,,,0.00,Wunderground v.1.15,2013-04-29 07:42:00,
2013-04-29 03:47:00,55.4,53.7,29.92,WSW,254,0.0,3.0,94,0.00,,,0.00,Wunderground v.1.15,2013-04-29 07:47:00,
2013-04-29 03:52:00,55.4,53.7,29.92,WSW,254,0.0,3.0,94,0.00,,,0.00,Wunderground v.1.15,2013-04-29 07:52:00,
2013-04-29 03:57:00,55.4,53.7,29.92,WSW,254,0.0,3.0,94,0.00,,,0.00,Wunderground v.1.15,2013-04-29 07:57:00,
2013-04-29 04:02:00,55.4,53.7,29.92,WSW,254,0.0,1.0,94,0.00,,,0.00,Wunderground v.1.15,2013-04-29 08:02:00,
2013-04-29 04:08:00,55.4,53.7,29.92,WSW,254,0.0,1.0,94,0.00,,,0.00,Wunderground v.1.15,2013-04-29 08:08:00,
2013-04-29 04:13:00,55.3,53.6,29.92,WSW,254,0.0,1.0,94,0.00,,,0.00,Wunderground v.1.15,2013-04-29 08:13:00,
2013-04-29 04:18:00,55.3,53.6,29.92,WSW,254,0.0,2.0,94,0.00,,,0.00,Wunderground v.1.15,2013-04-29 08:18:00,
2013-04-29 04:23:00,55.4,53.7,29.92,WSW,254,0.0,1.0,94,0.00,,,0.00,Wunderground v.1.15,2013-04-29 08:23:00,
2013-04-29 04:28:00,55.3,53.6,29.92,WSW,254,0.0,3.0,94,0.00,,,0.00,Wunderground v.1.15,2013-04-29 08:28:00,
2013-04-29 04:33:00,55.3,53.6,29.92,WSW,254,0.0,2.0,94,0.00,,,0.00,Wunderground v.1.15,2013-04-29 08:33:00,
2013-04-29 04:39:00,55.3,53.9,29.92,WSW,254,0.0,3.0,95,0.00,,,0.00,Wunderground v.1.15,2013-04-29 08:39:00,
2013-04-29 04:44:00,55.3,53.9,29.93,WSW,254,0.0,1.0,95,0.00,,,0.00,Wunderground v.1.15,2013-04-29 08:44:00,
2013-04-29 04:49:00,55.3,53.9,29.93,WSW,254,0.0,1.0,95,0.00,,,0.00,Wunderground v.1.15,2013-04-29 08:49:00,
2013-04-29 04:54:00,55.2,53.8,29.93,WSW,254,0.0,2.0,95,0.00,,,0.00,Wunderground v.1.15,2013-04-29 08:54:00,
2013-04-29 04:59:00,55.2,53.8,29.93,WSW,254,2.0,2.0,95,0.00,,,0.00,Wunderground v.1.15,2013-04-29 08:59:00,
2013-04-29 05:04:00,55.2,53.8,29.93,WSW,254,0.0,3.0,95,0.00,,,0.00,Wunderground v.1.15,2013-04-29 09:04:00,
2013-04-29 05:10:00,55.2,53.8,29.93,WSW,254,0.0,0.0,95,0.00,,,0.00,Wunderground v.1.15,2013-04-29 09:10:00,
2013-04-29 05:15:00,55.2,53.8,29.93,WSW,254,0.0,2.0,95,0.00,,,0.00,Wunderground v.1.15,2013-04-29 09:15:00,
2013-04-29 05:20:00,55.2,53.8,29.93,WSW,247,0.0,1.0,95,0.00,,,0.00,Wunderground v.1.15,2013-04-29 09:20:00,
2013-04-29 05:25:00,55.2,53.8,29.93,South,191,0.0,4.0,95,0.00,,,0.00,Wunderground v.1.15,2013-04-29 09:25:00,
2013-04-29 05:30:00,55.2,53.8,29.93,South,191,1.0,1.0,95,0.00,,,0.00,Wunderground v.1.15,2013-04-29 09:30:00,
2013-04-29 05:35:00,55.2,53.8,29.93,South,191,0.0,4.0,95,0.00,,,0.00,Wunderground v.1.15,2013-04-29 09:35:00,
2013-04-29 05:41:00,55.2,53.8,29.93,South,191,0.0,1.0,95,0.00,,,0.00,Wunderground v.1.15,2013-04-29 09:41:00,
2013-04-29 05:46:00,55.2,53.8,29.93,South,191,0.0,1.0,95,0.00,,,0.00,Wunderground v.1.15,2013-04-29 09:46:00,
2013-04-29 05:51:00,55.2,53.8,29.93,South,191,0.0,1.0,95,0.00,,,0.00,Wunderground v.1.15,2013-04-29 09:51:00,
2013-04-29 05:56:00,55.2,53.8,29.93,South,191,0.0,2.0,95,0.00,,,0.00,Wunderground v.1.15,2013-04-29 09:56:00,
2013-04-29 06:02:00,55.2,53.8,29.94,South,191,0.0,2.0,95,0.00,,,0.00,Wunderground v.1.15,2013-04-29 10:02:00,
2013-04-29 06:07:00,55.1,54.0,29.94,South,191,0.0,2.0,96,0.00,,,0.00,Wunderground v.1.15,2013-04-29 10:07:00,
2013-04-29 06:12:00,55.1,54.0,29.94,South,191,0.0,3.0,96,0.00,,,0.00,Wunderground v.1.15,2013-04-29 10:12:00,
2013-04-29 06:17:00,55.1,54.0,29.94,South,191,1.0,3.0,96,0.00,,,0.00,Wunderground v.1.15,2013-04-29 10:17:00,
2013-04-29 06:22:00,55.1,54.0,29.94,South,191,1.0,2.0,96,0.00,,,0.00,Wunderground v.1.15,2013-04-29 10:22:00,
2013-04-29 06:27:00,55.1,54.0,29.95,West,266,1.0,2.0,96,0.00,,,0.00,Wunderground v.1.15,2013-04-29 10:27:00,
2013-04-29 06:32:00,55.1,54.0,29.95,West,266,0.0,0.0,96,0.00,,,0.00,Wunderground v.1.15,2013-04-29 10:32:00,
2013-04-29 06:37:00,55.1,54.0,29.95,West,266,1.0,1.0,96,0.00,,,0.00,Wunderground v.1.15,2013-04-29 10:37:00,
2013-04-29 06:42:00,55.1,54.0,29.95,WSW,238,0.0,4.0,96,0.00,,,0.00,Wunderground v.1.15,2013-04-29 10:42:00,
2013-04-29 06:47:00,55.1,54.0,29.95,WSW,240,0.0,4.0,96,0.00,,,0.00,Wunderground v.1.15,2013-04-29 10:47:00,
2013-04-29 06:52:00,55.1,54.0,29.95,WSW,240,0.0,2.0,96,0.00,,,0.00,Wunderground v.1.15,2013-04-29 10:52:00,
2013-04-29 06:57:00,55.1,54.0,29.96,WSW,240,0.0,2.0,96,0.00,,,0.01,Wunderground v.1.15,2013-04-29 10:57:00,
2013-04-29 07:02:00,55.1,54.0,29.96,WSW,240,0.0,2.0,96,0.00,,,0.01,Wunderground v.1.15,2013-04-29 11:02:00,
2013-04-29 07:08:00,55.1,54.0,29.96,WSW,240,0.0,2.0,96,0.00,,,0.01,Wunderground v.1.15,2013-04-29 11:08:00,
2013-04-29 07:13:00,55.0,53.9,29.96,WSW,240,0.0,0.0,96,0.00,,,0.01,Wunderground v.1.15,2013-04-29 11:13:00,
2013-04-29 07:18:00,55.1,54.3,29.97,WSW,240,0.0,2.0,97,0.00,,,0.01,Wunderground v.1.15,2013-04-29 11:18:00,
2013-04-29 07:23:00,55.1,54.3,29.97,WSW,240,0.0,0.0,97,0.00,,,0.01,Wunderground v.1.15,2013-04-29 11:23:00,
2013-04-29 07:28:00,55.1,54.3,29.97,WSW,240,0.0,2.0,97,0.00,,,0.01,Wunderground v.1.15,2013-04-29 11:28:00,
2013-04-29 07:33:00,55.1,54.3,29.97,WSW,240,0.0,2.0,97,0.00,,,0.01,Wunderground v.1.15,2013-04-29 11:33:00,
2013-04-29 07:38:00,55.1,54.3,29.97,WSW,240,0.0,4.0,97,0.00,,,0.01,Wunderground v.1.15,2013-04-29 11:38:00,
2013-04-29 07:43:00,55.2,54.4,29.97,WSW,240,0.0,1.0,97,0.00,,,0.01,Wunderground v.1.15,2013-04-29 11:43:00,
2013-04-29 07:49:00,55.2,54.4,29.97,WSW,240,0.0,1.0,97,0.00,,,0.01,Wunderground v.1.15,2013-04-29 11:49:00,
2013-04-29 07:54:00,55.2,54.4,29.97,WSW,240,0.0,0.0,97,0.00,,,0.01,Wunderground v.1.15,2013-04-29 11:54:00,
2013-04-29 07:59:00,55.3,54.5,29.97,WSW,240,0.0,1.0,97,0.00,,,0.01,Wunderground v.1.15,2013-04-29 11:59:00,
2013-04-29 08:04:00,55.3,54.5,29.98,WSW,240,0.0,2.0,97,0.00,,,0.01,Wunderground v.1.15,2013-04-29 12:04:00,
2013-04-29 08:09:00,55.3,54.5,29.98,WSW,240,0.0,2.0,97,0.00,,,0.01,Wunderground v.1.15,2013-04-29 12:09:00,
2013-04-29 08:14:00,55.3,54.5,29.98,WSW,240,0.0,2.0,97,0.00,,,0.01,Wunderground v.1.15,2013-04-29 12:14:00,
2013-04-29 08:20:00,55.4,54.6,29.98,WSW,240,0.0,0.0,97,0.00,,,0.01,Wunderground v.1.15,2013-04-29 12:20:00,
2013-04-29 08:25:00,55.4,54.6,29.98,WSW,240,0.0,0.0,97,0.00,,,0.01,Wunderground v.1.15,2013-04-29 12:25:00,
2013-04-29 08:30:00,55.4,54.6,29.99,WSW,240,0.0,0.0,97,0.00,,,0.01,Wunderground v.1.15,2013-04-29 12:30:00,
2013-04-29 08:35:00,55.4,54.6,29.99,WSW,240,0.0,3.0,97,0.00,,,0.01,Wunderground v.1.15,2013-04-29 12:35:00,
2013-04-29 08:40:00,55.4,54.6,29.99,WSW,240,0.0,0.0,97,0.00,,,0.01,Wunderground v.1.15,2013-04-29 12:40:00,
2013-04-29 08:46:00,55.4,54.6,29.99,WSW,240,0.0,2.0,97,0.00,,,0.01,Wunderground v.1.15,2013-04-29 12:46:00,
2013-04-29 08:51:00,55.5,54.7,29.99,WSW,240,2.0,2.0,97,0.00,,,0.01,Wunderground v.1.15,2013-04-29 12:51:00,
2013-04-29 08:56:00,55.4,54.6,29.99,WSW,240,0.0,2.0,97,0.00,,,0.01,Wunderground v.1.15,2013-04-29 12:56:00,
2013-04-29 09:01:00,55.5,54.7,29.99,WSW,240,0.0,1.0,97,0.00,,,0.01,Wunderground v.1.15,2013-04-29 13:01:00,
2013-04-29 09:06:00,55.5,54.7,29.99,WSW,240,0.0,2.0,97,0.00,,,0.01,Wunderground v.1.15,2013-04-29 13:06:00,
2013-04-29 09:11:00,55.6,54.8,29.99,WSW,240,0.0,0.0,97,0.00,,,0.01,Wunderground v.1.15,2013-04-29 13:11:00,
2013-04-29 09:16:00,55.7,54.9,29.99,WSW,240,0.0,3.0,97,0.00,,,0.01,Wunderground v.1.15,2013-04-29 13:16:00,
2013-04-29 09:21:00,55.7,54.9,29.99,WSW,240,0.0,2.0,97,0.00,,,0.01,Wunderground v.1.15,2013-04-29 13:21:00,
2013-04-29 09:26:00,55.7,54.9,29.99,WSW,240,0.0,2.0,97,0.00,,,0.01,Wunderground v.1.15,2013-04-29 13:26:00,
2013-04-29 09:31:00,55.7,54.9,29.99,WSW,240,1.0,3.0,97,0.00,,,0.01,Wunderground v.1.15,2013-04-29 13:31:00,
2013-04-29 09:36:00,55.7,54.9,29.99,WSW,240,0.0,3.0,97,0.00,,,0.01,Wunderground v.1.15,2013-04-29 13:36:00,
2013-04-29 09:42:00,55.8,55.0,30.00,West,259,1.0,4.0,97,0.00,,,0.01,Wunderground v.1.15,2013-04-29 13:42:00,
2013-04-29 09:47:00,55.8,55.0,30.00,West,259,0.0,4.0,97,0.00,,,0.01,Wunderground v.1.15,2013-04-29 13:47:00,
2013-04-29 09:52:00,55.8,55.0,30.00,West,259,2.0,3.0,97,0.00,,,0.01,Wunderground v.1.15,2013-04-29 13:52:00,
2013-04-29 09:57:00,55.7,54.9,30.00,West,264,0.0,4.0,97,0.00,,,0.02,Wunderground v.1.15,2013-04-29 13:57:00,
2013-04-29 10:02:00,55.7,54.9,30.00,West,264,0.0,1.0,97,0.00,,,0.02,Wunderground v.1.15,2013-04-29 14:02:00,
2013-04-29 10:07:00,55.7,54.9,29.99,West,278,0.0,4.0,97,0.00,,,0.02,Wunderground v.1.15,2013-04-29 14:07:00,
2013-04-29 10:12:00,55.8,55.0,29.99,West,278,0.0,1.0,97,0.00,,,0.02,Wunderground v.1.15,2013-04-29 14:12:00,
2013-04-29 10:17:00,55.9,55.1,30.00,West,278,1.0,3.0,97,0.00,,,0.02,Wunderground v.1.15,2013-04-29 14:17:00,
2013-04-29 10:22:00,55.9,55.1,30.00,West,278,0.0,2.0,97,0.00,,,0.02,Wunderground v.1.15,2013-04-29 14:22:00,
2013-04-29 10:27:00,56.1,55.3,30.00,West,278,0.0,2.0,97,0.00,,,0.02,Wunderground v.1.15,2013-04-29 14:27:00,
2013-04-29 10:32:00,56.3,55.5,30.00,SW,234,1.0,4.0,97,0.00,,,0.02,Wunderground v.1.15,2013-04-29 14:32:00,
2013-04-29 10:37:00,56.6,55.8,30.00,West,261,0.0,4.0,97,0.00,,,0.02,Wunderground v.1.15,2013-04-29 14:37:00,
2013-04-29 10:43:00,56.8,56.0,30.00,West,261,0.0,3.0,97,0.00,,,0.02,Wunderground v.1.15,2013-04-29 14:43:00,
2013-04-29 10:48:00,56.9,56.1,30.00,West,261,0.0,3.0,97,0.00,,,0.02,Wunderground v.1.15,2013-04-29 14:48:00,
2013-04-29 10:53:00,57.2,56.4,30.00,West,261,0.0,2.0,97,0.00,,,0.02,Wunderground v.1.15,2013-04-29 14:53:00,
2013-04-29 10:58:00,57.4,56.6,30.00,West,261,0.0,2.0,97,0.00,,,0.02,Wunderground v.1.15,2013-04-29 14:58:00,
2013-04-29 11:03:00,57.4,56.6,30.00,West,261,0.0,3.0,97,0.00,,,0.02,Wunderground v.1.15,2013-04-29 15:03:00,
2013-04-29 11:08:00,57.4,56.6,30.00,West,261,0.0,3.0,97,0.00,,,0.02,Wunderground v.1.15,2013-04-29 15:08:00,
2013-04-29 11:14:00,57.7,56.9,30.00,West,261,1.0,2.0,97,0.00,,,0.02,Wunderground v.1.15,2013-04-29 15:14:00,
2013-04-29 11:19:00,58.0,57.2,30.00,West,261,0.0,2.0,97,0.00,,,0.02,Wunderground v.1.15,2013-04-29 15:19:00,
2013-04-29 11:24:00,58.0,57.2,30.00,West,261,0.0,3.0,97,0.00,,,0.02,Wunderground v.1.15,2013-04-29 15:24:00,
2013-04-29 11:29:00,58.1,57.0,30.00,WSW,250,0.0,3.0,96,0.00,,,0.02,Wunderground v.1.15,2013-04-29 15:29:00,
2013-04-29 11:35:00,58.5,57.1,30.01,WSW,250,0.0,1.0,95,0.00,,,0.02,Wunderground v.1.15,2013-04-29 15:35:00,
2013-04-29 11:40:00,58.6,56.9,30.00,SSW,207,0.0,0.0,94,0.00,,,0.02,Wunderground v.1.15,2013-04-29 15:40:00,
2013-04-29 11:45:00,58.7,56.4,30.01,SW,217,0.0,3.0,92,0.00,,,0.02,Wunderground v.1.15,2013-04-29 15:45:00,
2013-04-29 11:50:00,58.7,56.4,30.01,SW,217,0.0,0.0,92,0.00,,,0.02,Wunderground v.1.15,2013-04-29 15:50:00,
2013-04-29 11:56:00,58.8,56.2,30.01,SW,219,2.0,4.0,91,0.00,,,0.02,Wunderground v.1.15,2013-04-29 15:56:00,
2013-04-29 12:01:00,58.9,56.3,30.01,SW,219,0.0,1.0,91,0.00,,,0.02,Wunderground v.1.15,2013-04-29 16:01:00,
2013-04-29 12:06:00,58.8,56.2,30.01,WSW,258,2.0,2.0,91,0.00,,,0.02,Wunderground v.1.15,2013-04-29 16:06:00,
2013-04-29 12:11:00,58.7,56.1,30.01,West,265,0.0,1.0,91,0.00,,,0.02,Wunderground v.1.15,2013-04-29 16:11:00,
2013-04-29 12:16:00,58.6,56.0,30.01,West,265,0.0,2.0,91,0.00,,,0.02,Wunderground v.1.15,2013-04-29 16:16:00,
2013-04-29 12:21:00,58.7,56.1,30.01,West,265,0.0,1.0,91,0.00,,,0.02,Wunderground v.1.15,2013-04-29 16:21:00,
2013-04-29 12:26:00,58.8,56.2,30.01,West,265,0.0,2.0,91,0.00,,,0.02,Wunderground v.1.15,2013-04-29 16:26:00,
2013-04-29 12:31:00,58.9,56.6,30.01,West,265,1.0,1.0,92,0.00,,,0.02,Wunderground v.1.15,2013-04-29 16:31:00,
2013-04-29 12:36:00,58.8,55.9,30.01,West,275,2.0,8.0,90,0.00,,,0.02,Wunderground v.1.15,2013-04-29 16:36:00,
2013-04-29 12:41:00,58.8,55.9,30.01,WSW,249,2.0,3.0,90,0.00,,,0.02,Wunderground v.1.15,2013-04-29 16:41:00,
2013-04-29 12:46:00,58.9,56.0,30.01,WSW,242,1.0,4.0,90,0.00,,,0.02,Wunderground v.1.15,2013-04-29 16:46:00,
2013-04-29 12:51:00,58.9,56.0,30.01,WSW,242,0.0,3.0,90,0.00,,,0.02,Wunderground v.1.15,2013-04-29 16:51:00,
2013-04-29 12:56:00,58.9,56.3,30.01,WSW,242,0.0,3.0,91,0.00,,,0.02,Wunderground v.1.15,2013-04-29 16:56:00,
2013-04-29 13:02:00,58.9,56.3,30.01,WSW,242,0.0,2.0,91,0.00,,,0.02,Wunderground v.1.15,2013-04-29 17:02:00,
2013-04-29 13:07:00,59.0,56.7,30.00,WSW,242,0.0,2.0,92,0.00,,,0.02,Wunderground v.1.15,2013-04-29 17:07:00,
2013-04-29 13:12:00,59.2,56.6,30.00,WSW,242,0.0,3.0,91,0.00,,,0.02,Wunderground v.1.15,2013-04-29 17:12:00,
2013-04-29 13:17:00,59.3,56.4,30.00,WSW,242,0.0,3.0,90,0.00,,,0.02,Wunderground v.1.15,2013-04-29 17:17:00,
2013-04-29 13:22:00,59.9,57.3,30.00,WSW,242,1.0,1.0,91,0.00,,,0.02,Wunderground v.1.15,2013-04-29 17:22:00,
2013-04-29 13:27:00,60.1,56.8,30.00,SW,218,0.0,4.0,89,0.00,,,0.02,Wunderground v.1.15,2013-04-29 17:27:00,
2013-04-29 13:32:00,60.2,56.6,30.00,SW,218,0.0,1.0,88,0.00,,,0.02,Wunderground v.1.15,2013-04-29 17:32:00,
2013-04-29 13:37:00,60.5,56.6,30.00,WSW,255,0.0,4.0,87,0.00,,,0.02,Wunderground v.1.15,2013-04-29 17:37:00,
2013-04-29 13:42:00,60.9,56.7,30.00,WSW,255,1.0,1.0,86,0.00,,,0.02,Wunderground v.1.15,2013-04-29 17:42:00,
2013-04-29 13:47:00,61.1,56.6,29.99,WSW,257,0.0,3.0,85,0.00,,,0.02,Wunderground v.1.15,2013-04-29 17:47:00,
2013-04-29 13:52:00,61.3,57.1,29.99,WSW,257,0.0,2.0,86,0.00,,,0.02,Wunderground v.1.15,2013-04-29 17:52:00,
2013-04-29 13:58:00,61.5,56.9,29.99,WSW,257,0.0,3.0,85,0.00,,,0.02,Wunderground v.1.15,2013-04-29 17:58:00,
2013-04-29 14:03:00,61.5,56.6,29.99,SSW,209,0.0,3.0,84,0.00,,,0.02,Wunderground v.1.15,2013-04-29 18:03:00,
2013-04-29 14:08:00,61.5,56.6,29.99,SSW,209,1.0,4.0,84,0.00,,,0.02,Wunderground v.1.15,2013-04-29 18:08:00,
2013-04-29 14:13:00,61.5,56.6,29.99,SSW,208,0.0,2.0,84,0.00,,,0.02,Wunderground v.1.15,2013-04-29 18:13:00,
2013-04-29 14:18:00,61.6,56.0,29.99,SSW,208,3.0,3.0,82,0.00,,,0.02,Wunderground v.1.15,2013-04-29 18:18:00,
2013-04-29 14:23:00,61.9,56.7,29.99,SSW,208,0.0,4.0,83,0.00,,,0.02,Wunderground v.1.15,2013-04-29 18:23:00,
2013-04-29 14:28:00,62.2,57.3,29.99,SSW,208,0.0,4.0,84,0.00,,,0.02,Wunderground v.1.15,2013-04-29 18:28:00,
2013-04-29 14:33:00,62.6,57.0,29.99,SSW,208,2.0,3.0,82,0.00,,,0.02,Wunderground v.1.15,2013-04-29 18:33:00,
2013-04-29 14:38:00,62.7,56.1,29.98,SSW,197,1.0,4.0,79,0.00,,,0.02,Wunderground v.1.15,2013-04-29 18:38:00,
2013-04-29 14:43:00,62.8,56.5,29.99,SSW,197,0.0,3.0,80,0.00,,,0.02,Wunderground v.1.15,2013-04-29 18:43:00,
2013-04-29 14:49:00,62.9,56.6,29.99,South,191,0.0,4.0,80,0.00,,,0.02,Wunderground v.1.15,2013-04-29 18:49:00,
2013-04-29 14:54:00,62.8,56.5,29.98,South,191,1.0,4.0,80,0.00,,,0.02,Wunderground v.1.15,2013-04-29 18:54:00,
2013-04-29 14:59:00,62.7,56.8,29.98,SSW,198,1.0,7.0,81,0.00,,,0.02,Wunderground v.1.15,2013-04-29 18:59:00,
2013-04-29 15:04:00,62.5,56.9,29.98,SSW,197,0.0,3.0,82,0.00,,,0.02,Wunderground v.1.15,2013-04-29 19:04:00,
2013-04-29 15:09:00,62.3,56.4,29.98,SSW,195,1.0,4.0,81,0.00,,,0.02,Wunderground v.1.15,2013-04-29 19:09:00,
2013-04-29 15:14:00,62.1,56.2,29.98,South,191,2.0,4.0,81,0.00,,,0.02,Wunderground v.1.15,2013-04-29 19:14:00,
2013-04-29 15:19:00,62.1,56.5,29.98,South,191,0.0,4.0,82,0.00,,,0.02,Wunderground v.1.15,2013-04-29 19:19:00,
2013-04-29 15:25:00,62.3,56.4,29.98,SSW,204,2.0,5.0,81,0.00,,,0.02,Wunderground v.1.15,2013-04-29 19:25:00,
2013-04-29 15:30:00,62.2,56.3,29.98,SSW,204,4.0,4.0,81,0.00,,,0.02,Wunderground v.1.15,2013-04-29 19:30:00,
2013-04-29 15:35:00,62.2,56.3,29.98,WSW,258,0.0,6.0,81,0.00,,,0.02,Wunderground v.1.15,2013-04-29 19:35:00,
2013-04-29 15:40:00,62.4,56.5,29.98,SSW,202,0.0,1.0,81,0.00,,,0.02,Wunderground v.1.15,2013-04-29 19:40:00,
2013-04-29 15:45:00,62.7,56.8,29.98,SSW,202,3.0,4.0,81,0.00,,,0.02,Wunderground v.1.15,2013-04-29 19:45:00,
2013-04-29 15:50:00,62.8,56.9,29.98,SSW,205,3.0,4.0,81,0.00,,,0.02,Wunderground v.1.15,2013-04-29 19:50:00,
2013-04-29 15:55:00,62.9,56.6,29.97,SSW,205,0.0,4.0,80,0.00,,,0.02,Wunderground v.1.15,2013-04-29 19:55:00,
2013-04-29 16:00:00,63.1,57.2,29.97,SSW,201,0.0,3.0,81,0.00,,,0.02,Wunderground v.1.15,2013-04-29 20:00:00,
2013-04-29 16:05:00,63.3,56.7,29.97,SSW,201,0.0,4.0,79,0.00,,,0.02,Wunderground v.1.15,2013-04-29 20:05:00,
2013-04-29 16:10:00,63.4,56.4,29.97,SSW,204,2.0,3.0,78,0.00,,,0.02,Wunderground v.1.15,2013-04-29 20:10:00,
2013-04-29 16:15:00,63.4,56.1,29.97,South,180,1.0,7.0,77,0.00,,,0.02,Wunderground v.1.15,2013-04-29 20:15:00,
2013-04-29 16:21:00,63.4,56.8,29.97,SW,229,0.0,2.0,79,0.00,,,0.02,Wunderground v.1.15,2013-04-29 20:21:00,
2013-04-29 16:26:00,63.7,57.1,29.97,WSW,257,2.0,4.0,79,0.00,,,0.02,Wunderground v.1.15,2013-04-29 20:26:00,
2013-04-29 16:31:00,63.8,56.4,29.97,SW,220,0.0,3.0,77,0.00,,,0.02,Wunderground v.1.15,2013-04-29 20:31:00,
2013-04-29 16:36:00,63.8,56.4,29.97,SSW,209,4.0,5.0,77,0.00,,,0.02,Wunderground v.1.15,2013-04-29 20:36:00,
2013-04-29 16:41:00,63.5,56.9,29.97,SSW,200,0.0,3.0,79,0.00,,,0.02,Wunderground v.1.15,2013-04-29 20:41:00,
2013-04-29 16:46:00,63.5,57.2,29.97,SSW,197,0.0,3.0,80,0.00,,,0.02,Wunderground v.1.15,2013-04-29 20:46:00,
2013-04-29 16:52:00,63.5,56.9,29.97,SSW,200,0.0,3.0,79,0.00,,,0.02,Wunderground v.1.15,2013-04-29 20:52:00,
2013-04-29 16:57:00,63.5,55.8,29.97,SSW,200,2.0,5.0,76,0.00,,,0.02,Wunderground v.1.15,2013-04-29 20:57:00,
2013-04-29 17:02:00,63.4,56.1,29.97,SSW,198,0.0,3.0,77,0.00,,,0.02,Wunderground v.1.15,2013-04-29 21:02:00,
2013-04-29 17:07:00,63.3,56.0,29.97,SSW,200,3.0,5.0,77,0.00,,,0.02,Wunderground v.1.15,2013-04-29 21:07:00,
2013-04-29 17:13:00,63.2,55.9,29.97,SSW,201,2.0,3.0,77,0.00,,,0.02,Wunderground v.1.15,2013-04-29 21:13:00,
2013-04-29 17:18:00,62.9,55.2,29.97,SSW,198,2.0,4.0,76,0.00,,,0.02,Wunderground v.1.15,2013-04-29 21:18:00,
2013-04-29 17:23:00,62.8,55.8,29.97,SSW,198,2.0,3.0,78,0.00,,,0.02,Wunderground v.1.15,2013-04-29 21:23:00,
2013-04-29 17:28:00,62.6,55.3,29.97,SSW,199,2.0,5.0,77,0.00,,,0.02,Wunderground v.1.15,2013-04-29 21:28:00,
2013-04-29 17:34:00,62.5,55.2,29.97,SSW,201,2.0,4.0,77,0.00,,,0.02,Wunderground v.1.15,2013-04-29 21:34:00,
2013-04-29 17:39:00,62.6,55.3,29.97,SSW,202,4.0,4.0,77,0.00,,,0.02,Wunderground v.1.15,2013-04-29 21:39:00,
2013-04-29 17:44:00,62.6,55.3,29.97,SSW,202,4.0,4.0,77,0.00,,,0.02,Wunderground v.1.15,2013-04-29 21:44:00,
2013-04-29 17:49:00,62.7,55.0,29.97,SSW,193,1.0,6.0,76,0.00,,,0.02,Wunderground v.1.15,2013-04-29 21:49:00,
2013-04-29 17:54:00,62.8,55.5,29.97,SSW,194,2.0,4.0,77,0.00,,,0.02,Wunderground v.1.15,2013-04-29 21:54:00,
2013-04-29 17:59:00,62.9,55.2,29.97,SSW,196,4.0,7.0,76,0.00,,,0.02,Wunderground v.1.15,2013-04-29 21:59:00,
2013-04-29 18:05:00,63.1,55.8,29.97,SSW,196,0.0,4.0,77,0.00,,,0.02,Wunderground v.1.15,2013-04-29 22:05:00,
2013-04-29 18:10:00,63.2,55.9,29.97,SSW,196,1.0,1.0,77,0.00,,,0.02,Wunderground v.1.15,2013-04-29 22:10:00,
2013-04-29 18:15:00,63.2,55.9,29.97,WSW,242,0.0,3.0,77,0.00,,,0.02,Wunderground v.1.15,2013-04-29 22:15:00,
2013-04-29 18:20:00,63.2,55.5,29.97,WSW,242,0.0,3.0,76,0.00,,,0.02,Wunderground v.1.15,2013-04-29 22:20:00,
2013-04-29 18:25:00,63.2,55.5,29.97,WSW,242,1.0,3.0,76,0.00,,,0.02,Wunderground v.1.15,2013-04-29 22:25:00,
2013-04-29 18:31:00,63.2,55.5,29.97,SSW,205,2.0,2.0,76,0.00,,,0.02,Wunderground v.1.15,2013-04-29 22:31:00,
2013-04-29 18:36:00,63.1,55.4,29.96,SSW,205,2.0,5.0,76,0.00,,,0.02,Wunderground v.1.15,2013-04-29 22:36:00,
2013-04-29 18:41:00,63.0,55.3,29.96,SSW,205,0.0,1.0,76,0.00,,,0.02,Wunderground v.1.15,2013-04-29 22:41:00,
2013-04-29 18:46:00,62.8,55.1,29.96,SSW,208,0.0,4.0,76,0.00,,,0.02,Wunderground v.1.15,2013-04-29 22:46:00,
2013-04-29 18:52:00,62.8,55.5,29.96,SSW,208,0.0,1.0,77,0.00,,,0.02,Wunderground v.1.15,2013-04-29 22:52:00,
2013-04-29 18:57:00,62.8,55.1,29.96,SSW,208,0.0,3.0,76,0.00,,,0.02,Wunderground v.1.15,2013-04-29 22:57:00,
2013-04-29 19:02:00,62.7,55.0,29.96,SSW,208,1.0,2.0,76,0.00,,,0.02,Wunderground v.1.15,2013-04-29 23:02:00,
2013-04-29 19:07:00,62.6,55.3,29.96,SSW,208,0.0,2.0,77,0.00,,,0.02,Wunderground v.1.15,2013-04-29 23:07:00,
2013-04-29 19:12:00,62.5,55.2,29.96,SSW,208,0.0,2.0,77,0.00,,,0.02,Wunderground v.1.15,2013-04-29 23:12:00,
2013-04-29 19:17:00,62.4,55.1,29.96,SSW,208,0.0,2.0,77,0.00,,,0.02,Wunderground v.1.15,2013-04-29 23:17:00,
2013-04-29 19:22:00,62.4,55.1,29.96,SSW,208,1.0,2.0,77,0.00,,,0.02,Wunderground v.1.15,2013-04-29 23:22:00,
2013-04-29 19:27:00,62.3,54.6,29.96,SSW,208,0.0,2.0,76,0.00,,,0.02,Wunderground v.1.15,2013-04-29 23:27:00,
2013-04-29 19:32:00,62.3,54.6,29.96,SSW,208,0.0,3.0,76,0.00,,,0.02,Wunderground v.1.15,2013-04-29 23:32:00,
2013-04-29 19:37:00,62.3,55.0,29.96,SSW,208,0.0,3.0,77,0.00,,,0.02,Wunderground v.1.15,2013-04-29 23:37:00,
2013-04-29 19:43:00,62.3,55.0,29.96,SSW,208,0.0,1.0,77,0.00,,,0.02,Wunderground v.1.15,2013-04-29 23:43:00,
2013-04-29 19:48:00,62.1,54.4,29.96,SSW,208,0.0,3.0,76,0.00,,,0.02,Wunderground v.1.15,2013-04-29 23:48:00,
2013-04-29 19:53:00,61.9,54.2,29.96,SSW,208,1.0,2.0,76,0.00,,,0.02,Wunderground v.1.15,2013-04-29 23:53:00,
2013-04-29 19:58:00,61.8,54.5,29.96,SSW,208,0.0,2.0,77,0.00,,,0.02,Wunderground v.1.15,2013-04-29 23:58:00,
2013-04-29 20:03:00,61.6,54.3,29.96,SSW,208,0.0,1.0,77,0.00,,,0.02,Wunderground v.1.15,2013-04-30 00:03:00,
2013-04-29 20:08:00,61.5,54.2,29.96,SSW,208,0.0,1.0,77,0.00,,,0.02,Wunderground v.1.15,2013-04-30 00:08:00,
2013-04-29 20:14:00,61.3,54.0,29.96,SSW,208,0.0,0.0,77,0.00,,,0.02,Wunderground v.1.15,2013-04-30 00:14:00,
2013-04-29 20:19:00,61.1,54.2,29.96,SSW,208,0.0,0.0,78,0.00,,,0.02,Wunderground v.1.15,2013-04-30 00:19:00,
2013-04-29 20:24:00,60.8,53.9,29.96,SSW,208,0.0,0.0,78,0.00,,,0.02,Wunderground v.1.15,2013-04-30 00:24:00,
2013-04-29 20:29:00,60.5,54.0,29.96,SSW,208,0.0,0.0,79,0.00,,,0.02,Wunderground v.1.15,2013-04-30 00:29:00,
2013-04-29 20:34:00,60.2,54.0,29.96,SSW,208,0.0,0.0,80,0.00,,,0.02,Wunderground v.1.15,2013-04-30 00:34:00,
2013-04-29 20:39:00,59.8,53.6,29.96,SSW,208,0.0,0.0,80,0.00,,,0.02,Wunderground v.1.15,2013-04-30 00:39:00,
2013-04-29 20:44:00,59.3,53.5,29.96,SSW,208,0.0,0.0,81,0.00,,,0.02,Wunderground v.1.15,2013-04-30 00:44:00,
2013-04-29 20:49:00,58.8,53.3,29.96,SSW,208,0.0,0.0,82,0.00,,,0.02,Wunderground v.1.15,2013-04-30 00:49:00,
2013-04-29 20:54:00,58.4,53.3,29.96,SSW,208,0.0,0.0,83,0.00,,,0.02,Wunderground v.1.15,2013-04-30 00:54:00,
2013-04-29 20:59:00,58.0,52.9,29.96,SSW,208,0.0,0.0,83,0.00,,,0.02,Wunderground v.1.15,2013-04-30 00:59:00,
2013-04-29 21:04:00,57.6,52.8,29.96,SSW,208,0.0,0.0,84,0.00,,,0.02,Wunderground v.1.15,2013-04-30 01:04:00,
2013-04-29 21:09:00,57.3,52.8,29.97,SSW,208,0.0,0.0,85,0.00,,,0.02,Wunderground v.1.15,2013-04-30 01:09:00,
2013-04-29 21:14:00,57.1,52.6,29.97,SSW,208,0.0,0.0,85,0.00,,,0.02,Wunderground v.1.15,2013-04-30 01:14:00,
2013-04-29 21:19:00,56.9,52.8,29.97,SSW,208,0.0,0.0,86,0.00,,,0.02,Wunderground v.1.15,2013-04-30 01:19:00,
2013-04-29 21:24:00,56.6,52.5,29.97,SSW,208,0.0,0.0,86,0.00,,,0.02,Wunderground v.1.15,2013-04-30 01:24:00,
2013-04-29 21:29:00,56.5,52.7,29.97,SSW,208,0.0,0.0,87,0.00,,,0.02,Wunderground v.1.15,2013-04-30 01:29:00,
2013-04-29 21:35:00,56.3,52.5,29.98,SSW,208,0.0,0.0,87,0.00,,,0.02,Wunderground v.1.15,2013-04-30 01:35:00,
2013-04-29 21:40:00,56.1,52.6,29.98,SSW,208,0.0,0.0,88,0.00,,,0.02,Wunderground v.1.15,2013-04-30 01:40:00,
2013-04-29 21:45:00,55.9,52.4,29.98,SSW,208,0.0,0.0,88,0.00,,,0.02,Wunderground v.1.15,2013-04-30 01:45:00,
2013-04-29 21:50:00,55.7,52.2,29.98,SSW,208,0.0,0.0,88,0.00,,,0.02,Wunderground v.1.15,2013-04-30 01:50:00,
2013-04-29 21:55:00,55.5,52.3,29.98,SSW,208,0.0,0.0,89,0.00,,,0.02,Wunderground v.1.15,2013-04-30 01:55:00,
2013-04-29 22:00:00,55.3,52.1,29.98,SSW,208,0.0,0.0,89,0.00,,,0.02,Wunderground v.1.15,2013-04-30 02:00:00,
2013-04-29 22:05:00,55.3,52.7,29.98,SSW,208,0.0,0.0,91,0.00,,,0.02,Wunderground v.1.15,2013-04-30 02:05:00,
2013-04-29 22:10:00,55.1,52.5,29.98,SSW,208,0.0,0.0,91,0.00,,,0.02,Wunderground v.1.15,2013-04-30 02:10:00,
2013-04-29 22:15:00,55.0,52.4,29.98,SSW,208,0.0,0.0,91,0.00,,,0.02,Wunderground v.1.15,2013-04-30 02:15:00,
2013-04-29 22:21:00,54.8,52.2,29.98,SSW,208,0.0,0.0,91,0.00,,,0.02,Wunderground v.1.15,2013-04-30 02:21:00,
2013-04-29 22:26:00,54.6,52.0,29.98,SSW,208,0.0,0.0,91,0.00,,,0.02,Wunderground v.1.15,2013-04-30 02:26:00,
2013-04-29 22:31:00,54.5,51.9,29.98,SSW,208,0.0,0.0,91,0.00,,,0.02,Wunderground v.1.15,2013-04-30 02:31:00,
2013-04-29 22:36:00,54.4,52.1,29.98,SSW,208,0.0,0.0,92,0.00,,,0.02,Wunderground v.1.15,2013-04-30 02:36:00,
2013-04-29 22:41:00,54.3,52.0,29.98,SSW,208,0.0,0.0,92,0.00,,,0.02,Wunderground v.1.15,2013-04-30 02:41:00,
2013-04-29 22:46:00,54.2,51.9,29.97,SSW,208,0.0,0.0,92,0.00,,,0.02,Wunderground v.1.15,2013-04-30 02:46:00,
2013-04-29 22:51:00,54.5,52.5,29.97,SSW,208,0.0,0.0,93,0.00,,,0.02,Wunderground v.1.15,2013-04-30 02:51:00,
2013-04-29 22:56:00,54.8,52.8,29.97,SSW,208,0.0,1.0,93,0.00,,,0.02,Wunderground v.1.15,2013-04-30 02:56:00,
2013-04-29 23:01:00,55.1,53.1,29.97,SSW,208,0.0,1.0,93,0.00,,,0.02,Wunderground v.1.15,2013-04-30 03:01:00,
2013-04-29 23:06:00,55.3,53.3,29.97,SSW,208,0.0,1.0,93,0.00,,,0.02,Wunderground v.1.15,2013-04-30 03:06:00,
2013-04-29 23:11:00,55.5,53.2,29.97,SSW,208,0.0,1.0,92,0.00,,,0.02,Wunderground v.1.15,2013-04-30 03:11:00,
2013-04-29 23:16:00,55.5,53.2,29.97,SSW,208,0.0,2.0,92,0.00,,,0.02,Wunderground v.1.15,2013-04-30 03:16:00,
2013-04-29 23:21:00,55.5,53.2,29.97,SSW,208,0.0,0.0,92,0.00,,,0.02,Wunderground v.1.15,2013-04-30 03:21:00,
2013-04-29 23:26:00,55.5,52.9,29.97,SSW,208,0.0,0.0,91,0.00,,,0.02,Wunderground v.1.15,2013-04-30 03:26:00,
2013-04-29 23:31:00,55.4,52.8,29.98,SSW,208,0.0,0.0,91,0.00,,,0.02,Wunderground v.1.15,2013-04-30 03:31:00,
2013-04-29 23:36:00,55.3,52.7,29.98,SSW,208,0.0,0.0,91,0.00,,,0.02,Wunderground v.1.15,2013-04-30 03:36:00,
2013-04-29 23:41:00,55.2,52.6,29.98,SSW,208,0.0,0.0,91,0.00,,,0.02,Wunderground v.1.15,2013-04-30 03:41:00,
2013-04-29 23:46:00,55.0,52.4,29.98,SSW,208,0.0,0.0,91,0.00,,,0.02,Wunderground v.1.15,2013-04-30 03:46:00,
2013-04-29 23:51:00,54.9,52.3,29.98,SSW,208,0.0,0.0,91,0.00,,,0.02,Wunderground v.1.15,2013-04-30 03:51:00,
2013-04-29 23:57:00,54.7,52.1,29.98,SSW,208,0.0,0.0,91,0.00,,,0.02,Wunderground v.1.15,2013-04-30 03:57:00,